ANA051 RJTT-RJCC
Flight info
| Callsign | ANA051 |
|---|---|
| Flight time | N/A |
| Altitude | 37000 |
| Route | BRUCE AGRIS Y11 SAMBO Y119 OHMAR Y13 SIRAO Y139 NAVER |
| Aircraft | B77W/H-SDE1E2E3FGHIJ2J3J4J5M1RWXY/LB1D1 |
Departure
| Time | N/A |
|---|---|
| Airport | Tokyo Haneda International Airport (RJTT) |
Arrival
| Time | 2026-04-30 17:58 |
|---|---|
| Airport | New Chitose Airport (RJCC) |
| Time | Latitude | Longitude | Altitude | Speed | Heading |
|---|---|---|---|---|---|
| 2026-04-30 17:39 | 41.80093 | 141.23197 | 34116 ft | 522 kts | 13° |
| 2026-04-30 17:41 | 42.03639 | 141.40717 | 31019 ft | 484 kts | 45° |
| 2026-04-30 17:42 | 42.08261 | 141.46944 | 29970 ft | 470 kts | 34° |
| 2026-04-30 17:42 | 42.16158 | 141.55685 | 30011 ft | 494 kts | 28° |
| 2026-04-30 17:43 | 42.21839 | 141.60031 | 28953 ft | 450 kts | 18° |
| 2026-04-30 17:44 | 42.30205 | 141.65325 | 27258 ft | 461 kts | 21° |
| 2026-04-30 17:44 | 42.38559 | 141.71512 | 25646 ft | 454 kts | 26° |
| 2026-04-30 17:46 | 42.52051 | 141.81723 | 22978 ft | 434 kts | 27° |
| 2026-04-30 17:47 | 42.62731 | 141.88314 | 20630 ft | 400 kts | 2° |
| 2026-04-30 17:48 | 42.72763 | 141.85352 | 18514 ft | 370 kts | 356° |
| 2026-04-30 17:48 | 42.80393 | 141.84990 | 16799 ft | 358 kts | 351° |
| 2026-04-30 17:49 | 42.89939 | 141.82122 | 12397 ft | 347 kts | 343° |
| 2026-04-30 17:50 | 42.99231 | 141.79128 | 7727 ft | 336 kts | 344° |
| 2026-04-30 17:51 | 43.03210 | 141.72883 | 4412 ft | 301 kts | 260° |
| 2026-04-30 17:52 | 43.01351 | 141.66229 | 3133 ft | 213 kts | 258° |
| 2026-04-30 17:53 | 42.96004 | 141.65776 | 3020 ft | 204 kts | 179° |
| 2026-04-30 17:54 | 42.90435 | 141.66644 | 2459 ft | 186 kts | 173° |
| 2026-04-30 17:55 | 42.85638 | 141.67536 | 1473 ft | 166 kts | 172° |
| 2026-04-30 17:56 | 42.81618 | 141.68280 | 617 ft | 140 kts | 172° |
| 2026-04-30 17:57 | 42.78719 | 141.68825 | 122 ft | 142 kts | 171° |
| 2026-04-30 17:58 | 42.76786 | 141.69103 | 86 ft | 39 kts | 197° |
| 2026-04-30 17:59 | 42.76870 | 141.68931 | 87 ft | 12 kts | 354° |
| 2026-04-30 18:00 | 42.77232 | 141.68868 | 88 ft | 15 kts | 354° |
| 2026-04-30 18:00 | 42.77545 | 141.68815 | 87 ft | 15 kts | 354° |
| 2026-04-30 18:01 | 42.77764 | 141.68775 | 88 ft | 16 kts | 352° |
| 2026-04-30 18:02 | 42.78121 | 141.68710 | 86 ft | 18 kts | 350° |
| 2026-04-30 18:02 | 42.78261 | 141.68684 | 86 ft | 0 kts | 354° |
| 2026-04-30 18:06 | 42.78529 | 141.68354 | 88 ft | 1 kts | 354° |
| 2026-04-30 18:07 | 42.78600 | 141.68303 | 86 ft | 4 kts | 300° |
| 2026-04-30 18:08 | 42.78616 | 141.68255 | 85 ft | 0 kts | 294° |